createdAt,value
2018-10-19T00:01:57.872Z,95.70
2018-10-19T00:04:26.234Z,95.70
2018-10-19T00:06:54.547Z,95.80
2018-10-19T00:09:22.802Z,95.80
2018-10-19T00:11:51.110Z,95.70
2018-10-19T00:14:19.459Z,95.70
2018-10-19T00:16:47.835Z,95.70
2018-10-19T00:19:16.142Z,95.70
2018-10-19T00:21:44.452Z,95.70
2018-10-19T00:24:12.787Z,95.70
2018-10-19T00:26:41.179Z,95.70
2018-10-19T00:29:09.550Z,95.70
2018-10-19T00:31:37.815Z,95.60
2018-10-19T00:34:06.287Z,95.70
2018-10-19T00:36:34.615Z,95.70
2018-10-19T00:39:03.315Z,95.70
2018-10-19T00:41:31.622Z,95.70
2018-10-19T00:43:59.926Z,95.70
2018-10-19T00:46:28.241Z,95.70
2018-10-19T00:48:56.526Z,95.60
2018-10-19T00:51:24.806Z,95.60
2018-10-19T00:53:53.123Z,95.60
2018-10-19T00:56:21.474Z,95.60
2018-10-19T00:58:49.780Z,95.60
2018-10-19T01:01:18.143Z,95.60
2018-10-19T01:03:46.461Z,95.50
2018-10-19T01:06:14.775Z,95.60
2018-10-19T01:08:43.115Z,95.60
2018-10-19T01:11:11.491Z,95.60
2018-10-19T01:13:39.731Z,95.70
2018-10-19T01:16:08.230Z,95.70
2018-10-19T01:18:36.553Z,95.60
2018-10-19T01:21:04.983Z,95.70
2018-10-19T01:23:33.215Z,95.70
2018-10-19T01:26:01.537Z,95.60
2018-10-19T01:28:29.840Z,95.70
2018-10-19T01:30:58.243Z,95.70
2018-10-19T01:33:26.520Z,95.70
2018-10-19T01:35:54.848Z,95.70
2018-10-19T01:38:23.175Z,95.60
2018-10-19T01:40:51.504Z,95.70
2018-10-19T01:43:19.832Z,96.00
2018-10-19T01:45:53.395Z,95.70
2018-10-19T01:48:21.863Z,95.70
2018-10-19T01:50:50.195Z,95.60
2018-10-19T01:53:18.492Z,95.60
2018-10-19T01:55:47.111Z,95.60
2018-10-19T01:58:15.690Z,95.70
2018-10-19T02:00:44.016Z,95.70
2018-10-19T02:03:12.408Z,95.70
2018-10-19T02:05:40.674Z,95.70
2018-10-19T02:08:10.431Z,95.70
2018-10-19T02:10:38.966Z,95.80
2018-10-19T02:13:07.497Z,95.80
2018-10-19T02:15:35.967Z,95.80
2018-10-19T02:18:04.479Z,95.80
2018-10-19T02:20:32.781Z,95.80
2018-10-19T02:23:01.113Z,95.70
2018-10-19T02:25:29.498Z,95.60
2018-10-19T02:27:57.922Z,95.70
2018-10-19T02:30:26.271Z,95.70
2018-10-19T02:32:54.670Z,95.70
2018-10-19T02:35:22.968Z,95.70
2018-10-19T02:37:51.312Z,95.70
2018-10-19T02:40:19.668Z,95.70
2018-10-19T02:42:48.049Z,95.70
2018-10-19T02:45:16.412Z,95.70
2018-10-19T02:47:44.773Z,95.70
2018-10-19T02:50:13.256Z,95.80
2018-10-19T02:52:41.612Z,95.70
2018-10-19T02:55:10.235Z,95.70
2018-10-19T02:57:38.628Z,95.70
2018-10-19T03:00:08.956Z,95.70
2018-10-19T03:02:37.308Z,95.70
2018-10-19T03:05:06.833Z,95.70
2018-10-19T03:07:35.125Z,95.70
2018-10-19T03:10:03.512Z,95.70
2018-10-19T03:12:31.881Z,95.70
2018-10-19T03:15:00.314Z,95.70
2018-10-19T03:17:28.703Z,95.80
2018-10-19T03:19:57.289Z,95.80
2018-10-19T03:22:25.649Z,95.80
2018-10-19T03:24:53.992Z,95.90
2018-10-19T03:27:22.304Z,95.90
2018-10-19T03:29:50.638Z,95.90
2018-10-19T03:32:19.017Z,95.90
2018-10-19T03:34:47.337Z,95.90
2018-10-19T03:37:15.740Z,96.30
2018-10-19T03:39:44.214Z,96.00
2018-10-19T03:42:12.577Z,96.10
2018-10-19T03:44:40.983Z,96.00
2018-10-19T03:47:09.364Z,96.00
2018-10-19T03:49:37.693Z,96.00
2018-10-19T03:52:06.336Z,96.00
2018-10-19T03:54:34.749Z,96.10
2018-10-19T03:57:03.307Z,96.10
2018-10-19T03:59:31.653Z,96.10
2018-10-19T04:02:00.065Z,96.20
2018-10-19T04:04:28.411Z,96.10
2018-10-19T04:06:56.748Z,96.10
2018-10-19T04:09:25.232Z,96.10
2018-10-19T04:11:53.661Z,96.10
2018-10-19T04:14:21.977Z,96.20
2018-10-19T04:16:50.334Z,96.20
2018-10-19T04:19:18.669Z,96.20
2018-10-19T04:21:47.016Z,96.20
2018-10-19T04:24:15.337Z,96.20
2018-10-19T04:26:43.716Z,96.30
2018-10-19T04:29:12.097Z,96.30
2018-10-19T04:31:40.484Z,96.30
2018-10-19T04:34:08.864Z,96.30
2018-10-19T04:36:37.281Z,96.40
2018-10-19T04:39:07.161Z,96.50
2018-10-19T04:41:35.506Z,96.50
2018-10-19T04:44:03.848Z,96.50
2018-10-19T04:46:32.292Z,96.50
2018-10-19T04:49:00.607Z,96.50
2018-10-19T04:51:28.940Z,96.60
2018-10-19T04:53:57.269Z,96.60
2018-10-19T04:56:25.593Z,96.60
2018-10-19T04:58:54.142Z,96.50
2018-10-19T05:01:22.548Z,96.50
2018-10-19T05:03:50.885Z,96.50
2018-10-19T05:06:19.264Z,96.50
2018-10-19T05:08:47.595Z,96.60
2018-10-19T05:11:16.000Z,96.60
2018-10-19T05:13:44.216Z,96.60
2018-10-19T05:16:12.532Z,96.60
2018-10-19T05:18:40.844Z,96.60
2018-10-19T05:21:09.228Z,96.60
2018-10-19T05:23:37.512Z,96.60
2018-10-19T05:26:06.703Z,96.60
2018-10-19T05:28:35.277Z,96.60
2018-10-19T05:31:03.669Z,96.60
2018-10-19T05:33:32.012Z,96.60
2018-10-19T05:36:00.480Z,96.60
2018-10-19T05:38:28.896Z,96.60
2018-10-19T05:40:57.295Z,96.60
2018-10-19T05:43:25.769Z,96.60
2018-10-19T05:45:54.264Z,96.70
2018-10-19T05:48:22.828Z,96.70
2018-10-19T05:50:51.312Z,96.70
2018-10-19T05:53:19.660Z,96.70
2018-10-19T05:55:48.015Z,96.60
2018-10-19T05:58:16.372Z,96.70
2018-10-19T06:00:44.706Z,96.60
2018-10-19T06:03:13.049Z,96.70
2018-10-19T06:05:41.440Z,96.70
2018-10-19T06:08:09.850Z,96.70
2018-10-19T06:10:38.201Z,96.70
2018-10-19T06:13:06.575Z,96.80
2018-10-19T06:15:34.940Z,96.70
2018-10-19T06:18:03.345Z,96.70
2018-10-19T06:20:31.656Z,96.70
2018-10-19T06:23:00.120Z,96.70
2018-10-19T06:25:28.439Z,96.70
2018-10-19T06:27:56.890Z,96.60
2018-10-19T06:30:25.263Z,96.70
2018-10-19T06:32:53.593Z,96.60
2018-10-19T06:35:21.978Z,96.70
2018-10-19T06:37:50.556Z,96.70
2018-10-19T06:40:18.981Z,96.70
2018-10-19T06:42:47.309Z,96.70
2018-10-19T06:45:15.683Z,96.70
2018-10-19T06:47:44.021Z,96.80
2018-10-19T06:50:12.789Z,96.80
2018-10-19T06:52:41.471Z,96.80
2018-10-19T06:55:12.560Z,96.80
2018-10-19T06:57:40.888Z,96.90
2018-10-19T07:00:09.270Z,96.90
2018-10-19T07:02:37.589Z,96.90
2018-10-19T07:05:06.172Z,96.90
2018-10-19T07:07:34.589Z,96.90
2018-10-19T07:10:03.148Z,96.90
2018-10-19T07:12:31.557Z,97.00
2018-10-19T07:14:59.948Z,97.00
2018-10-19T07:17:28.330Z,97.10
2018-10-19T07:19:56.714Z,97.10
2018-10-19T07:22:25.168Z,97.20
2018-10-19T07:24:53.495Z,97.30
2018-10-19T07:27:21.857Z,97.40
2018-10-19T07:29:50.221Z,97.50
2018-10-19T07:32:24.988Z,97.70
2018-10-19T07:34:53.392Z,97.80
2018-10-19T07:37:21.712Z,97.90
2018-10-19T07:39:50.106Z,97.90
2018-10-19T07:42:18.868Z,98.00
2018-10-19T07:44:47.060Z,98.20
2018-10-19T07:47:15.732Z,98.20
2018-10-19T07:49:43.947Z,98.20
2018-10-19T07:52:12.316Z,98.30
2018-10-19T07:54:40.649Z,98.30
2018-10-19T07:57:08.964Z,98.40
2018-10-19T07:59:37.341Z,98.40
2018-10-19T08:02:06.041Z,98.50
2018-10-19T08:04:34.521Z,98.50
2018-10-19T08:07:02.921Z,98.60
2018-10-19T08:09:31.377Z,98.50
2018-10-19T08:11:59.744Z,98.50
2018-10-19T08:14:28.102Z,98.50
2018-10-19T08:16:56.453Z,98.40
2018-10-19T08:19:24.719Z,98.40
2018-10-19T08:21:53.063Z,98.30
2018-10-19T08:24:21.449Z,98.20
2018-10-19T08:26:49.825Z,98.20
2018-10-19T08:29:18.488Z,98.20
2018-10-19T08:31:46.845Z,98.20
2018-10-19T08:34:15.233Z,98.10
2018-10-19T08:36:43.820Z,98.00
2018-10-19T08:39:12.225Z,97.90
2018-10-19T08:41:40.653Z,97.70
2018-10-19T08:44:09.225Z,97.60
2018-10-19T08:46:39.317Z,97.60
2018-10-19T08:49:12.391Z,97.40
2018-10-19T08:51:41.785Z,97.30
2018-10-19T08:54:10.523Z,97.10
2018-10-19T08:56:39.365Z,97.10
2018-10-19T08:59:07.814Z,97.00
2018-10-19T09:01:36.186Z,96.90
2018-10-19T09:04:04.882Z,96.80
2018-10-19T09:06:33.481Z,96.70
2018-10-19T09:09:01.903Z,96.90
2018-10-19T09:11:30.298Z,96.50
2018-10-19T09:13:58.611Z,96.40
2018-10-19T09:16:26.997Z,96.20
2018-10-19T09:18:55.389Z,96.00
2018-10-19T09:21:23.793Z,96.00
2018-10-19T09:23:52.223Z,96.00
2018-10-19T09:26:20.581Z,95.80
2018-10-19T09:28:48.964Z,95.70
2018-10-19T09:31:17.386Z,95.10
2018-10-19T09:33:45.753Z,95.20
2018-10-19T09:36:14.304Z,95.10
2018-10-19T09:38:42.488Z,94.90
2018-10-19T09:41:10.847Z,94.70
2018-10-19T09:43:39.250Z,94.60
2018-10-19T09:46:07.611Z,94.50
2018-10-19T09:48:36.033Z,94.50
2018-10-19T09:51:04.658Z,94.40
2018-10-19T09:53:33.053Z,94.30
2018-10-19T09:56:01.440Z,94.30
2018-10-19T09:58:29.840Z,94.30
2018-10-19T10:00:58.638Z,94.20
2018-10-19T10:03:27.549Z,94.00
2018-10-19T10:05:56.218Z,94.10
2018-10-19T10:08:25.008Z,93.80
2018-10-19T10:10:53.789Z,93.70
2018-10-19T10:13:22.167Z,93.00
2018-10-19T10:15:50.551Z,92.80
2018-10-19T10:18:18.892Z,92.40
2018-10-19T10:20:47.346Z,91.40
2018-10-19T10:23:15.732Z,90.70
2018-10-19T10:25:45.049Z,89.50
2018-10-19T10:28:13.542Z,86.80
2018-10-19T10:30:41.808Z,85.10
2018-10-19T10:33:10.181Z,83.40
2018-10-19T10:35:38.517Z,79.90
2018-10-19T10:38:07.002Z,78.20
2018-10-19T10:40:35.400Z,76.20
2018-10-19T10:43:03.804Z,76.00
2018-10-19T10:45:32.202Z,77.40
2018-10-19T10:48:01.271Z,75.60
2018-10-19T10:50:29.713Z,73.70
2018-10-19T10:52:58.185Z,71.60
2018-10-19T10:55:26.677Z,69.20
2018-10-19T10:57:55.254Z,68.90
2018-10-19T11:00:23.603Z,68.70
2018-10-19T11:02:51.937Z,68.70
2018-10-19T11:05:20.468Z,69.00
2018-10-19T11:07:48.864Z,69.30
2018-10-19T11:10:17.369Z,69.80
2018-10-19T11:12:45.772Z,69.30
2018-10-19T11:15:14.166Z,69.40
2018-10-19T11:17:42.588Z,69.00
2018-10-19T11:20:11.027Z,68.80
2018-10-19T11:22:39.352Z,68.60
2018-10-19T11:25:08.351Z,69.20
2018-10-19T11:27:37.092Z,69.40
2018-10-19T11:30:06.822Z,69.20
2018-10-19T11:32:35.350Z,69.30
2018-10-19T11:35:03.737Z,69.50
2018-10-19T11:37:32.143Z,69.80
2018-10-19T11:40:11.771Z,69.00
2018-10-19T11:42:40.159Z,68.70
2018-10-19T11:45:08.853Z,68.40
2018-10-19T11:47:37.249Z,68.40
2018-10-19T11:50:05.913Z,68.70
2018-10-19T11:52:34.296Z,68.00
2018-10-19T11:55:02.723Z,68.30
2018-10-19T11:57:31.427Z,68.90
2018-10-19T11:59:59.861Z,69.50
2018-10-19T12:02:28.171Z,70.90
2018-10-19T12:04:56.508Z,70.30
2018-10-19T12:07:24.888Z,69.20
2018-10-19T12:09:53.289Z,67.30
2018-10-19T12:12:21.651Z,65.70
2018-10-19T12:14:50.049Z,63.30
2018-10-19T12:17:18.425Z,62.40
2018-10-19T12:19:46.802Z,60.50
2018-10-19T12:22:15.168Z,59.30
2018-10-19T12:24:43.547Z,58.00
2018-10-19T12:27:11.949Z,57.00
2018-10-19T12:29:40.309Z,55.70
2018-10-19T12:32:09.020Z,54.10
2018-10-19T12:34:37.658Z,53.00
2018-10-19T12:37:09.856Z,52.60
2018-10-19T12:39:38.393Z,51.30
2018-10-19T12:42:06.826Z,50.50
2018-10-19T12:44:35.257Z,48.80
2018-10-19T12:47:14.790Z,48.00
2018-10-19T12:49:43.896Z,47.30
2018-10-19T12:52:12.285Z,47.00
2018-10-19T12:54:40.895Z,46.70
2018-10-19T12:57:09.267Z,45.60
2018-10-19T12:59:37.806Z,45.00
2018-10-19T13:02:10.409Z,44.30
2018-10-19T13:04:38.792Z,44.00
2018-10-19T13:07:07.564Z,43.80
2018-10-19T13:09:36.049Z,44.70
2018-10-19T13:12:04.601Z,44.40
2018-10-19T13:14:32.953Z,44.10
2018-10-19T13:17:01.316Z,44.40
2018-10-19T13:19:29.675Z,44.40
2018-10-19T13:21:58.025Z,44.70
2018-10-19T13:24:26.425Z,44.70
2018-10-19T13:26:54.927Z,44.70
2018-10-19T13:29:23.291Z,45.10
2018-10-19T13:31:51.636Z,45.80
2018-10-19T13:34:20.076Z,46.60
2018-10-19T13:36:48.450Z,47.50
2018-10-19T13:39:16.807Z,47.60
2018-10-19T13:41:45.190Z,48.30
2018-10-19T13:44:13.501Z,48.30
2018-10-19T13:46:41.829Z,48.70
2018-10-19T13:49:10.206Z,49.30
2018-10-19T13:51:38.569Z,49.70
2018-10-19T13:54:06.876Z,49.80
2018-10-19T13:56:35.234Z,50.30
2018-10-19T13:59:03.708Z,50.60
2018-10-19T14:01:32.137Z,50.70
2018-10-19T14:04:00.621Z,51.30
2018-10-19T14:06:29.005Z,51.70
2018-10-19T14:08:57.401Z,51.80
2018-10-19T14:11:25.766Z,52.50
2018-10-19T14:13:54.111Z,52.80
2018-10-19T14:16:23.448Z,53.30
2018-10-19T14:18:51.915Z,54.50
2018-10-19T14:21:20.280Z,54.60
2018-10-19T14:23:48.732Z,54.50
2018-10-19T14:26:17.112Z,55.10
2018-10-19T14:28:45.461Z,55.30
2018-10-19T14:31:13.815Z,55.20
2018-10-19T14:33:42.199Z,55.80
2018-10-19T14:36:10.521Z,56.50
2018-10-19T14:38:38.897Z,57.30
2018-10-19T14:41:07.448Z,57.70
2018-10-19T14:43:35.741Z,57.80
2018-10-19T14:46:04.090Z,58.40
2018-10-19T14:48:32.493Z,58.90
2018-10-19T14:51:00.895Z,59.20
2018-10-19T14:53:29.192Z,59.60
2018-10-19T14:55:57.529Z,60.30
2018-10-19T14:58:25.985Z,60.70
2018-10-19T15:00:54.450Z,61.30
2018-10-19T15:03:22.857Z,60.90
2018-10-19T15:05:51.329Z,60.60
2018-10-19T15:08:19.704Z,61.40
2018-10-19T15:10:48.304Z,62.10
2018-10-19T15:13:16.408Z,62.70
2018-10-19T15:15:44.764Z,63.20
2018-10-19T15:18:13.185Z,63.80
2018-10-19T15:20:41.568Z,64.40
2018-10-19T15:23:09.980Z,65.00
2018-10-19T15:25:38.949Z,66.10
2018-10-19T15:28:07.418Z,65.80
2018-10-19T15:30:35.759Z,66.20
2018-10-19T15:33:04.282Z,66.60
2018-10-19T15:35:32.694Z,67.10
2018-10-19T15:38:01.037Z,67.60
2018-10-19T15:40:29.397Z,67.90
2018-10-19T15:42:57.801Z,68.50
2018-10-19T15:45:26.204Z,68.90
2018-10-19T15:47:54.661Z,69.20
2018-10-19T15:50:22.996Z,69.70
2018-10-19T15:52:51.485Z,70.00
2018-10-19T15:55:19.851Z,70.50
2018-10-19T15:57:48.260Z,71.00
2018-10-19T16:00:16.733Z,71.40
2018-10-19T16:02:45.301Z,71.60
2018-10-19T16:05:13.668Z,72.20
2018-10-19T16:07:42.046Z,72.60
2018-10-19T16:10:10.470Z,72.90
2018-10-19T16:12:38.804Z,73.00
2018-10-19T16:15:08.919Z,74.30
2018-10-19T16:17:37.200Z,74.80
2018-10-19T16:20:07.576Z,75.10
2018-10-19T16:22:36.000Z,75.40
2018-10-19T16:25:04.925Z,75.50
2018-10-19T16:27:33.377Z,75.90
2018-10-19T16:30:01.700Z,76.30
2018-10-19T16:32:30.086Z,76.50
2018-10-19T16:34:58.745Z,76.70
2018-10-19T16:37:27.337Z,77.10
2018-10-19T16:39:55.645Z,77.30
2018-10-19T16:42:24.066Z,77.60
2018-10-19T16:44:52.570Z,77.90
2018-10-19T16:47:20.998Z,78.30
2018-10-19T16:49:49.400Z,78.50
2018-10-19T16:52:17.809Z,78.70
2018-10-19T16:54:46.285Z,79.30
2018-10-19T16:57:15.002Z,79.30
2018-10-19T16:59:43.564Z,79.50
2018-10-19T17:02:12.056Z,80.00
2018-10-19T17:04:40.560Z,80.50
2018-10-19T17:07:08.924Z,80.70
2018-10-19T17:09:37.290Z,81.00
2018-10-19T17:12:06.116Z,81.20
2018-10-19T17:14:34.469Z,81.50
2018-10-19T17:17:02.829Z,81.70
2018-10-19T17:19:31.270Z,82.00
2018-10-19T17:21:59.751Z,82.40
2018-10-19T17:24:28.269Z,82.60
2018-10-19T17:26:56.701Z,82.90
2018-10-19T17:29:25.083Z,83.00
2018-10-19T17:31:53.436Z,83.20
2018-10-19T17:34:21.778Z,83.40
2018-10-19T17:36:50.129Z,83.80
2018-10-19T17:39:18.739Z,83.90
2018-10-19T17:41:47.069Z,84.20
2018-10-19T17:44:15.385Z,84.40
2018-10-19T17:46:43.760Z,84.60
2018-10-19T17:49:12.118Z,84.70
2018-10-19T17:51:40.600Z,84.90
2018-10-19T17:54:09.169Z,85.20
2018-10-19T17:56:37.479Z,85.40
2018-10-19T17:59:05.935Z,85.70
2018-10-19T18:01:34.457Z,85.90
2018-10-19T18:04:02.921Z,85.90
2018-10-19T18:06:31.413Z,86.10
2018-10-19T18:08:59.858Z,86.50
2018-10-19T18:11:28.278Z,86.70
2018-10-19T18:13:56.704Z,86.90
2018-10-19T18:16:25.068Z,87.20
2018-10-19T18:18:53.445Z,87.20
2018-10-19T18:21:21.901Z,87.20
2018-10-19T18:23:50.323Z,87.10
2018-10-19T18:26:18.762Z,87.60
2018-10-19T18:28:47.121Z,87.70
2018-10-19T18:31:15.663Z,88.10
2018-10-19T18:33:44.148Z,88.20
2018-10-19T18:36:12.583Z,88.30
2018-10-19T18:38:40.956Z,88.30
2018-10-19T18:41:09.417Z,88.30
2018-10-19T18:43:37.888Z,88.50
2018-10-19T18:46:06.453Z,88.60
2018-10-19T18:48:34.847Z,88.90
2018-10-19T18:51:03.393Z,89.00
2018-10-19T18:53:31.692Z,89.30
2018-10-19T18:56:00.029Z,89.40
2018-10-19T18:58:28.547Z,89.60
2018-10-19T19:00:56.916Z,89.60
2018-10-19T19:03:25.232Z,89.60
2018-10-19T19:05:53.873Z,89.80
2018-10-19T19:08:22.317Z,89.90
2018-10-19T19:10:50.757Z,89.90
2018-10-19T19:13:25.837Z,90.00
2018-10-19T19:15:54.677Z,90.10
2018-10-19T19:18:23.317Z,90.10
2018-10-19T19:20:51.949Z,90.20
2018-10-19T19:23:20.394Z,90.20
2018-10-19T19:25:54.079Z,90.20
2018-10-19T19:28:23.333Z,90.20
2018-10-19T19:30:51.734Z,90.60
2018-10-19T19:33:25.585Z,90.40
2018-10-19T19:35:53.900Z,90.50
2018-10-19T19:38:22.561Z,90.50
2018-10-19T19:40:56.255Z,90.60
2018-10-19T19:43:24.684Z,90.60
2018-10-19T19:45:53.264Z,90.60
2018-10-19T19:48:33.456Z,90.70
2018-10-19T19:51:01.973Z,90.70
2018-10-19T19:53:30.407Z,90.70
2018-10-19T19:55:59.335Z,90.80
2018-10-19T19:58:27.734Z,90.70
2018-10-19T20:00:56.240Z,90.80
2018-10-19T20:03:24.857Z,90.80
2018-10-19T20:05:53.255Z,90.90
2018-10-19T20:08:21.874Z,91.00
2018-10-19T20:10:50.780Z,91.00
2018-10-19T20:13:19.308Z,91.00
2018-10-19T20:15:47.713Z,91.00
2018-10-19T20:18:16.209Z,91.10
2018-10-19T20:20:44.532Z,91.10
2018-10-19T20:23:13.028Z,91.10
2018-10-19T20:25:41.626Z,91.10
2018-10-19T20:28:10.130Z,91.20
2018-10-19T20:30:38.561Z,91.20
2018-10-19T20:33:06.985Z,91.20
2018-10-19T20:35:35.348Z,91.30
2018-10-19T20:38:03.768Z,91.20
2018-10-19T20:40:32.225Z,91.20
2018-10-19T20:43:02.809Z,91.30
2018-10-19T20:45:31.243Z,91.20
2018-10-19T20:47:59.594Z,91.30
2018-10-19T20:50:28.354Z,91.30
2018-10-19T20:52:58.080Z,91.30
2018-10-19T20:55:26.542Z,91.40
2018-10-19T20:57:55.225Z,91.50
2018-10-19T21:00:23.596Z,91.50
2018-10-19T21:02:51.944Z,91.60
2018-10-19T21:05:20.295Z,91.60
2018-10-19T21:07:48.589Z,91.80
2018-10-19T21:10:18.033Z,91.80
2018-10-19T21:12:46.352Z,91.80
2018-10-19T21:15:14.733Z,91.90
2018-10-19T21:17:43.298Z,91.90
2018-10-19T21:20:12.437Z,91.90
2018-10-19T21:22:40.770Z,91.90
2018-10-19T21:25:10.365Z,92.00
2018-10-19T21:27:39.469Z,92.10
2018-10-19T21:30:09.097Z,92.10
2018-10-19T21:32:37.531Z,92.10
2018-10-19T21:35:05.986Z,92.20
2018-10-19T21:37:34.296Z,92.20
2018-10-19T21:40:02.730Z,92.20
2018-10-19T21:42:31.065Z,92.20
2018-10-19T21:44:59.468Z,92.20
2018-10-19T21:47:28.019Z,92.50
2018-10-19T21:49:56.416Z,92.20
2018-10-19T21:52:24.776Z,92.20
2018-10-19T21:54:53.134Z,92.20
2018-10-19T21:57:21.499Z,92.20
2018-10-19T21:59:49.855Z,92.20
2018-10-19T22:02:18.209Z,92.20
2018-10-19T22:04:46.521Z,92.30
2018-10-19T22:07:15.012Z,92.30
2018-10-19T22:09:43.365Z,92.30
2018-10-19T22:12:11.724Z,92.30
2018-10-19T22:14:40.252Z,92.30
2018-10-19T22:17:08.677Z,92.30
2018-10-19T22:19:37.023Z,92.30
2018-10-19T22:22:05.557Z,92.30
2018-10-19T22:24:33.933Z,92.30
2018-10-19T22:27:02.280Z,92.30
2018-10-19T22:29:30.896Z,92.30
2018-10-19T22:31:59.269Z,92.40
2018-10-19T22:34:27.647Z,92.30
2018-10-19T22:36:55.967Z,92.40
2018-10-19T22:39:24.321Z,92.40
2018-10-19T22:41:52.666Z,92.40
2018-10-19T22:44:21.029Z,92.60
2018-10-19T22:46:49.384Z,92.40
2018-10-19T22:49:17.688Z,92.40
2018-10-19T22:51:46.097Z,92.50
2018-10-19T22:54:14.442Z,92.60
2018-10-19T22:56:42.875Z,93.00
2018-10-19T22:59:11.274Z,92.70
2018-10-19T23:01:39.662Z,92.90
2018-10-19T23:04:08.185Z,92.90
2018-10-19T23:06:36.665Z,93.00
2018-10-19T23:09:07.204Z,93.10
2018-10-19T23:11:35.592Z,93.10
2018-10-19T23:14:04.171Z,93.10
2018-10-19T23:16:32.738Z,93.10
2018-10-19T23:19:01.257Z,93.10
2018-10-19T23:21:29.622Z,93.10
2018-10-19T23:23:57.972Z,93.10
2018-10-19T23:26:26.349Z,93.10
2018-10-19T23:28:54.762Z,93.10
2018-10-19T23:31:23.267Z,93.10
2018-10-19T23:33:51.453Z,93.10
2018-10-19T23:36:19.856Z,93.20
2018-10-19T23:38:48.257Z,93.20
2018-10-19T23:41:16.637Z,93.30
2018-10-19T23:43:45.029Z,93.30
2018-10-19T23:46:13.256Z,93.30
2018-10-19T23:48:41.606Z,93.30
2018-10-19T23:51:09.917Z,93.30
2018-10-19T23:53:38.273Z,93.30
2018-10-19T23:56:06.874Z,93.30
2018-10-19T23:58:35.221Z,93.30
